M I D A S
Marine Information and Data Acquisition System
Tripno 599 of the Zeeleeuw from 2003-09-26 07:01:59 to 2003-09-26 15:27:12
Back to CruiseResearch ActivitiesStationsMapUnderway DataData graphs

EquipmentUnitsComment
TimeDGPSUTC
LatitudeDGPSDM.mWGS84
LongitudeDGPSDM.mWGS84
TemperatureSBE03/SBE38deg celciusITS90
ConductivitySBE21S/mITS90
SalinitySBE21 Practical Salinity Units
ChlorophylAChelsea fluorimeterg/lCalibrated in Aceton
Missing or incorrect values are displayed as -999
Sea surface data collected by the RV Zeeleeuw from 2003-09-26 07:01:59 to 2003-09-26 15:27:12
Time Latitude Longitude Temperature Conductivity Salinity ChlorophylA
2003-09-26 07:03:01 51°13.7 2°55.77 18.004952 3.891522 29.17746 3.398717
2003-09-26 07:04:01 51°13.7 2°55.75 18.496492 3.66608 27.324955 3.702101
2003-09-26 07:05:02 51°13.73 2°55.75 17.810479 3.892584 29.606701 4.174033
2003-09-26 07:06:01 51°13.79 2°55.67 17.895941 3.865283 29.42743 3.971777
2003-09-26 07:07:01 51°13.9 2°55.58 17.800791 3.777482 28.701448 4.072905
2003-09-26 07:08:01 51°14.02 2°55.5 17.699823 3.832185 29.163753 3.466136
2003-09-26 07:09:01 51°14.14 2°55.41 18.016193 3.913352 29.852127 3.129042
2003-09-26 07:10:01 51°14.25 2°55.27 18.254331 3.86191 29.443145 3.19646
2003-09-26 07:11:01 51°14.35 2°55.08 17.607335 3.938021 30.104204 3.19646
2003-09-26 07:11:59 51°14.45 2°54.88 17.69288 3.996426 30.592859 3.398717
2003-09-26 07:13:01 51°14.59 2°54.7 17.980964 4.124747 31.711053 3.735811
2003-09-26 07:14:01 51°14.76 2°54.59 17.959218 4.186014 32.177973 3.398717
2003-09-26 07:15:01 51°14.93 2°54.49 17.82672 4.204891 32.312429 3.263879
2003-09-26 07:16:01 51°15.1 2°54.4 18.11483 4.212273 32.349955 3.129042
2003-09-26 07:17:01 51°15.27 2°54.4 17.916956 4.223557 32.437917 3.23017
2003-09-26 07:18:01 51°15.44 2°54.44 18.233334 4.226826 32.462428 2.994204
2003-09-26 07:19:01 51°15.61 2°54.43 18.043373 4.229252 32.474408 2.926785
2003-09-26 07:20:01 51°15.79 2°54.39 17.75137 4.22767 32.453205 3.129042
2003-09-26 07:21:01 51°15.95 2°54.28 18.220634 4.242434 32.541515 3.095332
2003-09-26 07:22:01 51°16.06 2°54.15 18.112752 4.252768 32.545363 3.19646
2003-09-26 07:23:01 51°16.13 2°54.18 18.077863 4.260677 32.557829 3.331298
2003-09-26 07:24:01 51°16.17 2°54.21 17.373974 4.25456 32.489262 3.331298
2003-09-26 07:25:01 51°16.21 2°54.25 17.384478 4.267216 32.574978 3.19646
2003-09-26 07:26:01 51°16.24 2°54.27 17.38578 4.269747 32.590124 3.23017
2003-09-26 07:27:01 51°16.24 2°54.26 17.388469 4.271223 32.599787 3.365007
2003-09-26 07:28:01 51°16.24 2°54.24 17.422321 4.270485 32.593492 3.466136
2003-09-26 07:29:01 51°16.23 2°54.22 17.388385 4.272067 32.608152 3.432426
2003-09-26 07:30:01 51°16.27 2°54.16 17.38368 4.270802 32.597361 3.466136
2003-09-26 07:31:01 51°16.4 2°53.95 17.348337 4.269852 32.597463 3.432426
2003-09-26 07:32:01 51°16.54 2°53.68 17.438654 4.262997 32.557138 2.65711
2003-09-26 07:33:01 51°16.68 2°53.41 17.407077 4.279133 32.651408 2.522272
2003-09-26 07:34:01 51°16.82 2°53.13 17.421146 4.283458 32.688859 2.65711
2003-09-26 07:35:01 51°16.96 2°52.88 17.431937 4.280293 32.649579 2.825657
2003-09-26 07:36:01 51°17.1 2°52.6 17.444825 4.284196 32.6717 2.825657
2003-09-26 07:37:01 51°17.24 2°52.35 17.461068 4.288942 32.70393 2.724529
2003-09-26 07:38:01 51°17.41 2°52.11 17.491109 4.298539 32.76985 2.724529
2003-09-26 07:39:01 51°17.57 2°51.88 17.517951 4.31109 32.852657 2.555982
2003-09-26 07:40:01 51°17.73 2°51.65 17.533925 4.318473 32.897283 2.454853
2003-09-26 07:41:01 51°17.9 2°51.43 17.572944 4.32111 32.890311 2.724529
2003-09-26 07:42:01 51°18.07 2°51.22 17.607544 4.320898 32.867956 3.027913
2003-09-26 07:43:01 51°18.25 2°51.04 17.603942 4.316573 32.800151 3.398717
2003-09-26 07:44:01 51°18.38 2°50.95 17.604068 4.311089 32.768782 2.724529
2003-09-26 07:45:01 51°18.46 2°50.95 17.63388 4.311616 32.768582 2.6234
2003-09-26 07:46:01 51°18.49 2°51 17.599335 4.311722 32.771817 2.488563
2003-09-26 07:47:01 51°18.49 2°51.01 17.60256 4.310983 32.763792 2.454853
2003-09-26 07:48:01 51°18.49 2°50.99 17.600843 4.310983 32.765546 2.488563
2003-09-26 07:49:01 51°18.48 2°50.97 17.599587 4.309296 32.751214 2.454853
2003-09-26 07:50:01 51°18.47 2°50.95 17.601011 4.310034 32.758654 2.454853
2003-09-26 07:51:01 51°18.46 2°50.93 17.599922 4.309401 32.754448 2.488563
2003-09-26 07:52:01 51°18.51 2°50.95 17.60055 4.304444 32.712932 2.454853
2003-09-26 07:53:01 51°18.64 2°51.11 17.59544 4.307819 32.74218 2.522272
2003-09-26 07:54:01 51°18.74 2°51.37 17.595524 4.304339 32.711453 2.555982
2003-09-26 07:55:01 51°18.83 2°51.64 17.584256 4.302545 32.696811 2.555982
2003-09-26 07:56:01 51°18.93 2°51.92 17.565486 4.299276 32.680716 2.724529
2003-09-26 07:57:01 51°19.03 2°52.19 17.536315 4.292421 32.644648 2.758238
2003-09-26 07:58:01 51°19.13 2°52.47 17.548052 4.258671 32.385841 2.791947
2003-09-26 07:59:01 51°19.2 2°52.76 17.495807 4.284827 32.613938 2.859366
2003-09-26 08:00:01 51°19.27 2°53.05 17.484355 4.274175 32.542589 2.454853
2003-09-26 08:01:01 51°19.33 2°53.34 17.493039 4.270484 32.516435 2.555982
2003-09-26 08:02:01 51°19.41 2°53.63 17.506377 4.268269 32.484802 2.926785
2003-09-26 08:03:01 51°19.47 2°53.93 17.521431 4.266476 32.459104 2.926785
2003-09-26 08:04:01 51°19.54 2°54.22 17.533758 4.267741 32.456504 3.263879
2003-09-26 08:05:01 51°19.62 2°54.51 17.583292 4.265104 32.431209 3.297589
2003-09-26 08:06:01 51°19.69 2°54.8 17.469712 4.26521 32.44893 3.499845
2003-09-26 08:07:01 51°19.74 2°55.1 17.469293 4.262469 32.468039 3.23017
2003-09-26 08:08:01 51°19.8 2°55.41 17.513632 4.26521 32.458222 3.297589
2003-09-26 08:09:01 51°19.85 2°55.71 17.564648 4.266159 32.448288 3.331298
2003-09-26 08:10:01 51°19.9 2°56.01 17.539752 4.267741 32.446061 3.19646
2003-09-26 08:11:01 51°19.96 2°56.32 17.550231 4.267108 32.440688 3.365007
2003-09-26 08:12:01 51°20.01 2°56.62 17.547758 4.266264 32.420774 3.263879
2003-09-26 08:13:01 51°20.07 2°56.93 17.575626 4.262678 32.397865 3.331298
2003-09-26 08:14:01 51°20.13 2°57.23 17.541094 4.260042 32.379535 3.76952
2003-09-26 08:15:01 51°20.18 2°57.54 17.541555 4.25519 32.336044 3.76952
2003-09-26 08:16:01 51°20.24 2°57.85 17.543777 4.253081 32.316988 3.702101
2003-09-26 08:17:01 51°20.29 2°58.15 17.555596 4.256335 31.519484 3.331298
2003-09-26 08:18:01 51°20.35 2°58.46 17.589827 4.255506 32.318515 3.263879
2003-09-26 08:19:01 51°20.4 2°58.76 17.606413 4.259513 32.329993 3.263879
2003-09-26 08:20:01 51°20.46 2°59.07 17.607167 4.261095 32.335326 3.466136
2003-09-26 08:21:01 51°20.51 2°59.37 17.61282 4.26215 32.342534 3.432426
2003-09-26 08:22:01 51°20.57 2°59.68 17.627308 4.262783 32.339821 3.297589
2003-09-26 08:23:01 51°20.63 2°59.99 17.636643 4.264048 32.341317 3.297589
2003-09-26 08:24:01 51°20.68 3°0.3 17.646145 4.264997 32.34244 3.263879
2003-09-26 08:25:01 51°20.74 3°0.61 17.645015 4.265313 32.339356 3.297589
2003-09-26 08:26:01 51°20.79 3°0.92 17.643215 4.265946 32.34875 3.23017
2003-09-26 08:27:01 51°20.84 3°1.24 17.67506 4.266052 32.349643 3.095332
2003-09-26 08:28:01 51°20.9 3°1.56 17.645098 4.267634 32.362465 3.095332
2003-09-26 08:29:01 51°20.95 3°1.88 17.653552 4.269321 32.370989 3.027913
2003-09-26 08:30:01 51°21.02 3°2.18 17.663763 4.270798 32.375996 3.19646
2003-09-26 08:31:01 51°21.08 3°2.5 17.667571 4.272274 32.383307 3.263879
2003-09-26 08:32:01 51°21.14 3°2.81 17.668031 4.275544 32.405795 3.162751
2003-09-26 08:33:01 51°21.21 3°3.11 17.657151 4.276282 32.417818 3.027913
2003-09-26 08:34:01 51°21.27 3°3.42 17.682465 4.27913 32.444243 3.129042
2003-09-26 08:35:01 51°21.33 3°3.74 17.70388 4.292419 32.534802 3.095332
2003-09-26 08:36:01 51°21.4 3°4.05 17.719393 4.299274 32.578945 2.960494
2003-09-26 08:37:01 51°21.46 3°4.35 17.734359 4.305497 32.618871 2.994204
2003-09-26 08:38:01 51°21.53 3°4.66 17.748737 4.311403 32.65552 2.859366
2003-09-26 08:39:01 51°21.59 3°4.98 17.759477 4.315411 32.681311 2.926785
2003-09-26 08:40:01 51°21.65 3°5.29 17.766288 4.317626 32.692505 2.859366
2003-09-26 08:41:01 51°21.72 3°5.6 17.771135 4.320685 32.711415 2.758238
2003-09-26 08:42:01 51°21.78 3°5.91 17.771594 4.321528 32.711583 2.758238
2003-09-26 08:43:01 51°21.85 3°6.22 17.762235 4.324482 32.740635 2.825657
2003-09-26 08:44:01 51°21.91 3°6.54 17.750827 4.32849 32.786194 2.589691
2003-09-26 08:45:01 51°21.95 3°6.87 17.766372 4.329545 32.80095 2.488563
2003-09-26 08:46:01 51°21.98 3°7.2 17.757597 4.327435 32.769697 2.589691
2003-09-26 08:47:01 51°22.02 3°7.53 17.734067 4.328279 32.788486 2.454853
2003-09-26 08:48:01 51°22.06 3°7.85 17.714752 4.316888 32.709501 2.454853
2003-09-26 08:49:01 51°22.1 3°8.18 17.731768 4.302649 32.596505 2.488563
2003-09-26 08:50:01 51°22.13 3°8.52 17.750158 4.299379 32.549732 2.555982
2003-09-26 08:51:01 51°22.17 3°8.85 17.757012 4.298746 32.536863 2.555982
2003-09-26 08:52:01 51°22.21 3°9.19 17.762402 4.306235 32.593827 2.724529
2003-09-26 08:53:01 51°22.24 3°9.53 17.764575 4.30075 32.541092 2.825657
2003-09-26 08:54:01 51°22.28 3°9.87 17.770633 4.299801 32.533068 2.926785
2003-09-26 08:55:01 51°22.32 3°10.2 17.799664 4.288093 32.427794 2.960494
2003-09-26 08:56:01 51°22.36 3°10.53 17.825676 4.272483 32.273632 3.162751
2003-09-26 08:57:01 51°22.38 3°10.87 17.829684 4.26183 32.164391 3.095332
2003-09-26 08:58:01 51°22.39 3°11.21 17.835611 4.25487 32.104028 3.027913
2003-09-26 08:59:01 51°22.39 3°11.55 17.841454 4.257612 32.119164 3.23017
2003-09-26 09:00:01 51°22.4 3°11.89 17.830101 4.259194 32.134199 3.365007
2003-09-26 09:01:01 51°22.41 3°12.24 17.81503 4.265311 32.198861 3.331298
2003-09-26 09:02:01 51°22.43 3°12.59 17.656566 4.257296 32.177499 3.061623
2003-09-26 09:03:01 51°22.44 3°12.93 17.652841 4.235255 32.069555 3.129042
2003-09-26 09:04:01 51°22.52 3°13.14 17.653427 4.234834 32.069986 3.19646
2003-09-26 09:05:01 51°22.6 3°13.24 17.648405 4.232408 32.052332 3.129042
2003-09-26 09:06:01 51°22.6 3°13.25 17.648572 4.233463 32.064104 3.027913
2003-09-26 09:07:01 51°22.6 3°13.25 17.646982 4.233252 32.06232 3.061623
2003-09-26 09:08:01 51°22.6 3°13.25 17.648321 4.234412 32.073273 3.095332
2003-09-26 09:09:01 51°22.6 3°13.26 17.671671 4.23515 32.076659 3.027913
2003-09-26 09:10:01 51°22.6 3°13.26 17.755884 4.242532 32.102506 2.791947
2003-09-26 09:11:01 51°22.69 3°13.32 17.813151 4.250863 32.120926 2.690819
2003-09-26 09:12:01 51°22.85 3°13.52 17.88322 4.245799 32.015713 2.859366
2003-09-26 09:13:01 51°23.02 3°13.74 17.892938 4.245904 31.984882 2.825657
2003-09-26 09:14:01 51°23.18 3°13.97 17.882302 4.24949 32.011645 2.758238
2003-09-26 09:15:01 51°23.34 3°14.2 17.868453 4.260986 32.1129 2.758238
2003-09-26 09:16:01 51°23.5 3°14.43 17.863947 4.268474 32.190166 2.65711
2003-09-26 09:17:01 51°23.66 3°14.67 17.851303 4.269107 32.196635 2.589691
2003-09-26 09:18:01 51°23.82 3°14.9 17.843541 4.272799 32.239143 2.589691
2003-09-26 09:19:01 51°23.98 3°15.14 17.835736 4.278284 32.297375 2.589691
2003-09-26 09:20:01 51°24.14 3°15.38 17.844459 4.276385 32.273935 2.555982
2003-09-26 09:21:01 51°24.31 3°15.63 17.811272 4.274486 32.252221 2.454853
2003-09-26 09:22:01 51°24.47 3°15.88 17.740295 4.29073 32.427047 2.488563
2003-09-26 09:23:01 51°24.64 3°16.12 17.744433 4.295687 32.50869 2.555982
2003-09-26 09:24:01 51°24.8 3°16.37 17.710236 4.284613 32.39207 2.522272
2003-09-26 09:25:01 51°24.97 3°16.63 17.561505 4.306869 32.654867 2.859366
2003-09-26 09:26:01 51°25.13 3°16.88 17.537782 4.316574 32.84821 3.735811
2003-09-26 09:27:01 51°25.28 3°17.15 17.464719 4.316786 32.889389 4.039195
2003-09-26 09:28:01 51°25.42 3°17.42 17.403003 4.31647 32.922051 3.870648
2003-09-26 09:29:01 51°25.57 3°17.69 17.383511 4.310353 32.911789 3.76952
2003-09-26 09:30:01 51°25.71 3°17.94 17.372923 4.308455 32.901494 3.668392
2003-09-26 09:31:01 51°25.85 3°18.02 17.369561 4.305185 32.90017 3.331298
2003-09-26 09:32:01 51°25.95 3°17.94 17.327274 4.300439 32.874998 3.331298
2003-09-26 09:33:01 51°25.98 3°17.86 17.328619 4.299596 32.873109 3.365007
2003-09-26 09:34:01 51°25.96 3°17.79 17.327442 4.298647 32.867363 3.634683
2003-09-26 09:35:01 51°25.91 3°17.77 17.333202 4.298963 32.868293 3.600973
2003-09-26 09:36:01 51°25.89 3°17.79 17.327232 4.299912 32.875221 3.735811
2003-09-26 09:37:01 51°25.88 3°17.81 17.324288 4.299385 32.876627 3.904358
2003-09-26 09:38:01 51°25.86 3°17.83 17.327358 4.299174 32.873642 3.904358
2003-09-26 09:39:01 51°25.84 3°17.86 17.338416 4.298963 32.868293 3.668392
2003-09-26 09:40:01 51°25.8 3°17.87 17.339635 4.300439 32.873816 3.466136
2003-09-26 09:41:01 51°25.72 3°17.77 17.3862 4.301389 32.881334 3.398717
2003-09-26 09:42:01 51°25.66 3°17.52 17.416821 4.304974 32.892458 3.600973
2003-09-26 09:43:01 51°25.62 3°17.27 17.465096 4.313728 32.909882 3.735811
2003-09-26 09:44:01 51°25.58 3°17.03 17.489977 4.318474 32.924974 3.702101
2003-09-26 09:45:01 51°25.55 3°16.78 17.513296 4.323009 32.939436 3.702101
2003-09-26 09:46:01 51°25.52 3°16.53 17.544908 4.325751 32.943338 3.735811
2003-09-26 09:47:01 51°25.5 3°16.28 17.571981 4.330813 32.965804 3.634683
2003-09-26 09:48:01 51°25.46 3°16.04 17.621362 4.333134 32.964342 3.634683
2003-09-26 09:49:01 51°25.44 3°15.79 17.595147 4.334294 32.962437 3.567264
2003-09-26 09:50:01 51°25.42 3°15.54 17.600634 4.334715 32.958964 3.600973
2003-09-26 09:51:01 51°25.4 3°15.29 17.60633 4.335665 32.964679 3.600973
2003-09-26 09:52:01 51°25.39 3°15.04 17.61215 4.336192 32.963868 3.600973
2003-09-26 09:53:01 51°25.37 3°14.79 17.61952 4.336825 32.964541 3.634683
2003-09-26 09:53:59 51°25.35 3°14.55 17.628354 4.337668 32.962303 3.668392
2003-09-26 09:55:01 51°25.34 3°14.29 17.643173 4.338618 32.962726 3.634683
2003-09-26 09:56:01 51°25.33 3°14.04 17.656022 4.340411 32.970902 3.567264
2003-09-26 09:57:01 51°25.32 3°13.8 17.6705 4.34368 32.986911 3.533554
2003-09-26 09:58:01 51°25.31 3°13.55 17.683218 4.345368 32.987136 3.499845
2003-09-26 09:59:01 51°25.3 3°13.3 17.728005 4.345895 32.98339 3.432426
2003-09-26 10:00:01 51°25.29 3°13.05 17.70183 4.34716 32.984735 3.499845
2003-09-26 10:01:01 51°25.28 3°12.8 17.705051 4.34716 32.979454 3.466136
2003-09-26 10:01:59 51°25.27 3°12.56 17.708312 4.348743 32.989937 3.365007
2003-09-26 10:03:01 51°25.26 3°12.31 17.711825 4.349586 32.992985 3.398717
2003-09-26 10:04:01 51°25.28 3°12.08 17.716968 4.348426 32.983733 3.398717
2003-09-26 10:05:01 51°25.37 3°11.89 17.718557 4.350219 32.994244 3.466136
2003-09-26 10:06:01 51°25.46 3°11.7 17.713205 4.351168 33.002293 3.668392
2003-09-26 10:07:01 51°25.55 3°11.51 17.706347 4.347371 32.976549 3.80323
2003-09-26 10:08:01 51°25.63 3°11.32 17.706849 4.347688 32.982753 3.80323
2003-09-26 10:09:01 51°25.72 3°11.13 17.708689 4.347899 32.982781 3.80323
2003-09-26 10:10:01 51°25.8 3°10.95 17.707811 4.346844 32.972077 3.80323
2003-09-26 10:11:01 51°25.89 3°10.76 17.703043 4.348004 32.984263 3.80323
2003-09-26 10:12:01 51°25.95 3°10.55 17.696895 4.348637 32.995499 3.668392
2003-09-26 10:13:01 51°25.99 3°10.33 17.693549 4.344102 32.96231 3.634683
2003-09-26 10:14:01 51°26.04 3°10.11 17.697816 4.347055 32.98384 3.567264
2003-09-26 10:15:01 51°26.09 3°9.88 17.710278 4.346 32.974307 3.398717
2003-09-26 10:16:01 51°26.14 3°9.66 17.721107 4.346844 32.972664 3.297589
2003-09-26 10:17:01 51°26.19 3°9.44 17.761107 4.349375 32.975362 3.263879
2003-09-26 10:18:01 51°26.24 3°9.21 17.778028 4.35507 32.99549 3.162751
2003-09-26 10:19:01 51°26.29 3°8.99 17.797826 4.358446 33.015872 2.926785
2003-09-26 10:20:01 51°26.33 3°8.76 17.864322 4.362665 33.02581 2.522272
2003-09-26 10:21:01 51°26.38 3°8.53 17.916289 4.378275 33.096929 2.387435
2003-09-26 10:22:01 51°26.44 3°8.35 17.949051 4.387557 33.139627 2.286306
2003-09-26 10:23:01 51°26.44 3°8.3 17.942925 4.390405 33.153135 2.218888
2003-09-26 10:24:01 51°26.42 3°8.3 17.93213 4.39051 33.158714 2.421144
2003-09-26 10:25:01 51°26.41 3°8.31 17.938465 4.389772 33.157166 2.387435
2003-09-26 10:26:01 51°26.4 3°8.32 17.950343 4.389561 33.148353 2.387435
2003-09-26 10:27:01 51°26.39 3°8.33 17.957468 4.385763 33.106926 2.286306
2003-09-26 10:28:01 51°26.37 3°8.34 17.977507 4.390088 33.1329 2.185178
2003-09-26 10:29:03 51°26.36 3°8.36 17.980131 4.393147 33.146428 2.151469
2003-09-26 10:30:01 51°26.36 3°8.33 17.964676 4.389771 33.123795 2.218888
2003-09-26 10:31:01 51°26.42 3°8.07 17.94555 4.393675 33.171958 2.320016
2003-09-26 10:32:01 51°26.51 3°7.76 17.943675 4.390405 33.149621 2.454853
2003-09-26 10:33:01 51°26.61 3°7.46 17.937965 4.387662 33.132319 2.421144
2003-09-26 10:34:01 51°26.71 3°7.17 17.962426 4.381333 33.077714 2.353725
2003-09-26 10:35:01 51°26.82 3°6.88 18.024061 4.393041 33.145538 2.320016
2003-09-26 10:36:01 51°26.93 3°6.59 18.03097 4.403484 33.196754 2.353725
2003-09-26 10:37:01 51°27.03 3°6.3 18.030721 4.404011 33.201787 2.218888
2003-09-26 10:38:01 51°27.15 3°6.02 18.039877 4.402956 33.191722 2.320016
2003-09-26 10:39:01 51°27.27 3°5.73 18.059601 4.405488 33.204288 2.353725
2003-09-26 10:40:01 51°27.38 3°5.45 18.079485 4.409496 33.215838 2.353725
2003-09-26 10:41:01 51°27.5 3°5.17 18.090007 4.409812 33.209148 2.320016
2003-09-26 10:42:01 51°27.62 3°4.89 18.10847 4.411817 33.219597 2.252597
2003-09-26 10:43:01 51°27.74 3°4.62 18.160129 4.412765 33.201884 2.185178
2003-09-26 10:44:01 51°27.86 3°4.34 18.200126 4.41287 33.163708 2.185178
2003-09-26 10:45:01 51°27.99 3°4.06 18.248315 4.413081 33.131745 2.117759
2003-09-26 10:46:01 51°28.12 3°3.79 18.290499 4.421519 33.159008 2.117759
2003-09-26 10:47:01 51°28.24 3°3.57 18.32408 4.425316 33.166476 2.117759
2003-09-26 10:48:01 51°28.31 3°3.53 18.340781 4.430379 33.183386 2.016631
2003-09-26 10:49:03 51°28.31 3°3.54 18.348736 4.4327 33.190068 1.982922
2003-09-26 10:50:03 51°28.3 3°3.56 18.346167 4.434282 33.200421 1.881794
2003-09-26 10:51:01 51°28.3 3°3.58 18.351554 4.433438 33.191614 1.982922
2003-09-26 10:52:03 51°28.3 3°3.6 18.355986 4.434387 33.195506 2.050341
2003-09-26 10:53:01 51°28.3 3°3.62 18.352258 4.435337 33.201717 1.949212
2003-09-26 10:54:01 51°28.3 3°3.65 18.367875 4.434915 33.198183 1.915503
2003-09-26 10:55:01 51°28.32 3°3.63 18.357934 4.434598 33.185681 1.949212
2003-09-26 10:55:59 51°28.33 3°3.43 18.365514 4.434493 33.19407 1.915503
2003-09-26 10:57:01 51°28.25 3°3.17 18.378023 4.436602 33.199562 2.016631
2003-09-26 10:58:01 51°28.16 3°2.86 18.388748 4.438501 33.207342 1.982922
2003-09-26 10:59:01 51°28.08 3°2.53 18.391233 4.438923 33.201603 2.08405
2003-09-26 11:00:01 51°28.01 3°2.19 18.391605 4.440294 33.214236 1.982922
2003-09-26 11:01:01 51°27.94 3°1.86 18.392351 4.440083 33.211312 1.949212
2003-09-26 11:02:01 51°27.86 3°1.52 18.420336 4.439028 33.204223 2.016631
2003-09-26 11:03:01 51°27.79 3°1.18 18.357892 4.436497 33.191726 2.016631
2003-09-26 11:04:01 51°27.73 3°0.85 18.337217 4.433227 33.182312 1.982922
2003-09-26 11:05:01 51°27.67 3°0.5 18.303063 4.428586 33.165464 1.982922
2003-09-26 11:06:03 51°27.61 3°0.15 18.286228 4.424578 33.157966 2.050341
2003-09-26 11:07:01 51°27.56 2°59.83 18.286311 4.421202 33.136628 2.050341
2003-09-26 11:08:01 51°27.51 2°59.49 18.28515 4.420991 33.130802 2.08405
2003-09-26 11:09:03 51°27.45 2°59.14 18.266693 4.422046 33.140804 2.08405
2003-09-26 11:10:01 51°27.4 2°58.81 18.237152 4.414768 33.108183 2.117759
2003-09-26 11:11:01 51°27.35 2°58.48 18.222751 4.411814 33.099642 2.117759
2003-09-26 11:12:01 51°27.29 2°58.14 18.210256 4.40865 33.083525 2.218888
2003-09-26 11:13:03 51°27.24 2°57.8 18.201122 4.406224 33.071861 2.151469
2003-09-26 11:14:03 51°27.18 2°57.46 18.193357 4.40422 33.059096 2.050341
2003-09-26 11:15:01 51°27.14 2°57.14 18.178822 4.39884 33.024946 2.016631
2003-09-26 11:16:03 51°27.09 2°56.8 18.172259 4.393039 32.987239 1.949212
2003-09-26 11:17:03 51°27.04 2°56.48 18.172965 4.389558 32.960328 1.915503
2003-09-26 11:18:01 51°26.99 2°56.16 18.174959 4.388925 32.953857 1.848084
2003-09-26 11:19:01 51°26.95 2°55.82 18.187211 4.390507 32.961935 1.848084
2003-09-26 11:20:03 51°26.9 2°55.48 18.208554 4.394093 32.982205 1.848084
2003-09-26 11:21:01 51°26.86 2°55.16 18.233998 4.400316 33.014758 1.814375
2003-09-26 11:22:03 51°26.81 2°54.82 18.270717 4.404641 33.035412 1.780665
2003-09-26 11:23:01 51°26.77 2°54.51 18.354909 4.418037 33.107784 1.746956
2003-09-26 11:24:03 51°26.73 2°54.18 18.336264 4.428164 33.167726 1.915503
2003-09-26 11:25:01 51°26.69 2°53.86 18.352548 4.433438 33.196833 1.848084
2003-09-26 11:26:01 51°26.65 2°53.54 18.368704 4.439662 33.233873 2.016631
2003-09-26 11:27:01 51°26.6 2°53.22 18.378147 4.44367 33.256411 1.949212
2003-09-26 11:28:01 51°26.56 2°52.9 18.382827 4.445358 33.264736 2.151469
2003-09-26 11:29:01 51°26.52 2°52.58 18.385767 4.447784 33.283306 2.08405
2003-09-26 11:30:01 51°26.48 2°52.25 18.389204 4.44789 33.277801 2.08405
2003-09-26 11:31:01 51°26.44 2°51.94 18.392599 4.448945 33.284889 2.016631
2003-09-26 11:32:01 51°26.4 2°51.62 18.392889 4.449789 33.291372 2.016631
2003-09-26 11:33:03 51°26.35 2°51.29 18.395456 4.453164 33.317304 2.117759
2003-09-26 11:34:01 51°26.31 2°50.99 18.396201 4.456118 33.33796 2.117759
2003-09-26 11:35:01 51°26.27 2°50.67 18.400135 4.455485 33.334406 2.117759
2003-09-26 11:36:01 51°26.23 2°50.36 18.433869 4.456013 33.336495 2.151469
2003-09-26 11:37:01 51°26.19 2°50.05 18.414706 4.456224 33.335936 2.151469
2003-09-26 11:38:01 51°26.16 2°49.73 18.439455 4.460127 33.352321 2.218888
2003-09-26 11:39:01 51°26.12 2°49.41 18.453688 4.464029 33.367534 2.286306
2003-09-26 11:40:03 51°26.08 2°49.09 18.468538 4.466034 33.373834 2.185178
2003-09-26 11:41:03 51°26.05 2°48.86 18.469448 4.46846 33.386566 2.218888
2003-09-26 11:42:01 51°26.03 2°48.69 18.472302 4.468354 33.38394 2.185178
2003-09-26 11:43:01 51°26.02 2°48.59 18.474907 4.469726 33.390175 2.218888
2003-09-26 11:44:03 51°26 2°48.54 18.476107 4.46962 33.389874 2.117759
2003-09-26 11:45:01 51°25.99 2°48.53 18.47834 4.470359 33.394303 2.151469
2003-09-26 11:46:01 51°26 2°48.56 18.475031 4.470886 33.401038 2.320016
2003-09-26 11:47:01 51°26.01 2°48.6 18.475403 4.471625 33.40663 2.320016
2003-09-26 11:48:01 51°26.01 2°48.65 18.475031 4.471836 33.409557 2.286306
2003-09-26 11:49:01 51°26.02 2°48.7 18.476479 4.472047 33.408413 2.252597
2003-09-26 11:50:01 51°26 2°48.73 18.477678 4.470886 33.401038 2.252597
2003-09-26 11:51:01 51°25.92 2°48.55 18.488884 4.472574 33.40759 2.151469
2003-09-26 11:52:01 51°25.84 2°48.28 18.498477 4.473945 33.412658 2.286306
2003-09-26 11:53:01 51°25.77 2°47.98 18.504182 4.476899 33.431529 2.387435
2003-09-26 11:54:01 51°25.7 2°47.69 18.512656 4.479747 33.448933 2.421144
2003-09-26 11:55:01 51°25.63 2°47.39 18.522286 4.481541 33.458101 2.421144
2003-09-26 11:56:03 51°25.56 2°47.09 18.5327 4.484389 33.473171 2.488563
2003-09-26 11:57:03 51°25.49 2°46.8 18.536957 4.490613 33.517599 2.589691
2003-09-26 11:58:03 51°25.42 2°46.5 18.552904 4.496205 33.560813 2.758238
2003-09-26 11:59:03 51°25.35 2°46.22 18.56381 4.502745 33.60087 2.65711
2003-09-26 12:00:03 51°25.28 2°45.93 18.574961 4.508231 33.639104 2.555982
2003-09-26 12:01:03 51°25.22 2°45.64 18.580205 4.511923 33.660013 2.522272
2003-09-26 12:02:01 51°25.15 2°45.36 18.589785 4.515299 33.684117 2.488563
2003-09-26 12:03:01 51°25.08 2°45.06 18.596308 4.523634 33.744948 2.555982
2003-09-26 12:04:03 51°25.01 2°44.76 18.594987 4.528276 33.782549 2.589691
2003-09-26 12:05:03 51°24.94 2°44.47 18.590982 4.528065 33.781372 2.522272
2003-09-26 12:06:01 51°24.87 2°44.18 18.586895 4.527748 33.782245 2.6234
2003-09-26 12:07:01 51°24.8 2°43.89 18.584335 4.526799 33.77783 2.589691
2003-09-26 12:08:01 51°24.73 2°43.6 18.582105 4.527432 33.784878 2.589691
2003-09-26 12:09:01 51°24.67 2°43.31 18.582146 4.52701 33.783697 2.6234
2003-09-26 12:10:03 51°24.59 2°43 18.585863 4.529437 33.800453 2.589691
2003-09-26 12:11:03 51°24.53 2°42.71 18.5909 4.53123 33.813679 2.6234
2003-09-26 12:12:01 51°24.46 2°42.43 18.590074 4.535239 33.844243 2.690819
2003-09-26 12:13:03 51°24.39 2°42.13 18.585986 4.535872 33.850119 2.690819
2003-09-26 12:14:01 51°24.33 2°41.85 18.578843 4.536927 33.864812 2.6234
2003-09-26 12:15:03 51°24.26 2°41.55 18.575374 4.538404 33.880098 2.589691
2003-09-26 12:16:01 51°24.2 2°41.27 18.579462 4.540093 33.897152 2.65711
2003-09-26 12:17:01 51°24.13 2°40.98 18.588051 4.542203 33.908908 2.6234
2003-09-26 12:18:03 51°24.06 2°40.67 18.630071 4.544629 33.923307 2.65711
2003-09-26 12:19:01 51°24 2°40.39 18.601097 4.547372 33.938581 2.6234
2003-09-26 12:20:01 51°23.93 2°40.09 18.605143 4.545367 33.920651 2.65711
2003-09-26 12:21:01 51°23.86 2°39.79 18.605514 4.546739 33.927993 2.522272
2003-09-26 12:22:01 51°23.79 2°39.5 18.598951 4.550959 33.965619 2.421144
2003-09-26 12:23:03 51°23.7 2°39.2 18.593377 4.55328 33.988558 2.421144
2003-09-26 12:24:01 51°23.63 2°38.92 18.592551 4.552436 33.987399 2.454853
2003-09-26 12:25:01 51°23.55 2°38.63 18.591354 4.553386 33.993569 2.454853
2003-09-26 12:26:01 51°23.47 2°38.35 18.590446 4.550432 33.970049 2.421144
2003-09-26 12:27:01 51°23.39 2°38.06 18.591891 4.552014 33.986819 2.421144
2003-09-26 12:28:03 51°23.31 2°37.76 18.590982 4.550854 33.974167 2.421144
2003-09-26 12:29:01 51°23.22 2°37.49 18.599652 4.552964 33.99063 2.421144
2003-09-26 12:30:01 51°23.12 2°37.21 18.611624 4.555074 33.995886 2.286306
2003-09-26 12:31:01 51°23.02 2°36.94 18.614471 4.555496 33.997055 2.320016
2003-09-26 12:32:01 51°22.92 2°36.67 18.611912 4.554863 33.987637 2.353725
2003-09-26 12:33:03 51°22.81 2°36.4 18.613481 4.55423 33.984704 2.454853
2003-09-26 12:34:01 51°22.72 2°36.14 18.611128 4.553808 33.97941 2.421144
2003-09-26 12:35:01 51°22.62 2°35.87 18.610179 4.553069 33.974416 2.387435
2003-09-26 12:36:01 51°22.52 2°35.61 18.610922 4.55212 33.966481 2.421144
2003-09-26 12:37:01 51°22.42 2°35.34 18.614471 4.549693 33.946793 2.488563
2003-09-26 12:38:01 51°22.32 2°35.07 18.599157 4.548532 33.93533 2.522272
2003-09-26 12:39:01 51°22.23 2°34.81 18.518236 4.542308 33.90979 2.555982
2003-09-26 12:40:03 51°22.12 2°34.54 18.475362 4.528277 33.857166 2.555982
2003-09-26 12:41:03 51°22.02 2°34.28 18.450875 4.523636 33.841856 2.589691
2003-09-26 12:42:01 51°21.92 2°34.02 18.439 4.519838 33.830071 2.6234
2003-09-26 12:43:03 51°21.81 2°33.75 18.434614 4.519416 33.831839 2.6234
2003-09-26 12:44:03 51°21.7 2°33.48 18.435069 4.517834 33.822702 2.555982
2003-09-26 12:45:03 51°21.6 2°33.21 18.428613 4.520155 33.842157 2.65711
2003-09-26 12:46:03 51°21.49 2°32.94 18.419384 4.521526 33.858965 2.690819
2003-09-26 12:47:03 51°21.38 2°32.68 18.419218 4.522054 33.870473 2.6234
2003-09-26 12:48:01 51°21.28 2°32.42 18.419384 4.523109 33.876958 2.6234
2003-09-26 12:49:01 51°21.17 2°32.16 18.415741 4.52543 33.89997 2.6234
2003-09-26 12:50:03 51°21.04 2°31.9 18.414624 4.525324 33.902041 2.589691
2003-09-26 12:51:01 51°20.93 2°31.66 18.415286 4.52543 33.904108 2.589691
2003-09-26 12:52:01 51°20.81 2°31.42 18.416735 4.527118 33.918269 2.589691
2003-09-26 12:53:01 51°20.69 2°31.19 18.415907 4.527223 33.915606 2.522272
2003-09-26 12:54:01 51°20.57 2°30.95 18.416362 4.52754 33.920627 2.555982
2003-09-26 12:55:03 51°20.45 2°30.71 18.415452 4.52849 33.931551 2.454853
2003-09-26 12:56:03 51°20.33 2°30.48 18.414706 4.529545 33.939219 2.488563
2003-09-26 12:57:01 51°20.24 2°30.32 18.413879 4.529228 33.93538 2.522272
2003-09-26 12:58:01 51°20.18 2°30.21 18.410567 4.53176 33.959586 2.555982
2003-09-26 12:59:01 51°20.08 2°30.06 18.412761 4.534503 33.983791 2.589691
2003-09-26 13:00:01 51°20.04 2°29.97 18.416445 4.537879 34.007975 2.65711
2003-09-26 13:01:03 51°20.05 2°30.01 18.416569 4.535664 33.988788 2.589691
2003-09-26 13:02:03 51°20.07 2°30.06 18.417852 4.535875 33.991744 2.522272
2003-09-26 13:03:03 51°20.09 2°30.12 18.425551 4.536086 33.98818 2.555982
2003-09-26 13:04:01 51°20.12 2°30.19 18.412016 4.536613 33.991421 2.555982
2003-09-26 13:05:03 51°20.17 2°30.28 18.444172 4.540095 34.031912 2.555982
2003-09-26 13:06:01 51°20.17 2°30.52 18.410733 4.539145 34.02038 2.6234
2003-09-26 13:07:01 51°20.03 2°30.83 18.41363 4.53809 34.012118 3.600973
2003-09-26 13:08:01 51°19.89 2°31.13 18.409822 4.53598 33.994409 2.690819
2003-09-26 13:09:01 51°19.73 2°31.42 18.379224 4.53482 33.993563 2.724529
2003-09-26 13:10:01 51°19.58 2°31.71 18.368621 4.536086 34.024375 2.690819
2003-09-26 13:11:03 51°19.43 2°32 18.357229 4.534398 34.016135 2.65711
2003-09-26 13:12:01 51°19.29 2°32.28 18.354039 4.530811 33.994314 2.6234
2003-09-26 13:13:01 51°19.15 2°32.58 18.354951 4.531972 34.005846 2.65711
2003-09-26 13:14:03 51°19 2°32.88 18.343018 4.536509 34.042186 2.724529
2003-09-26 13:15:01 51°18.87 2°33.16 18.337673 4.519734 33.9137 3.061623
2003-09-26 13:16:01 51°18.72 2°33.45 18.321178 4.514142 33.873831 2.893076
2003-09-26 13:17:03 51°18.58 2°33.75 18.299953 4.507602 33.831301 2.758238
2003-09-26 13:18:01 51°18.44 2°34.04 18.284735 4.502749 33.80294 2.690819
2003-09-26 13:19:01 51°18.29 2°34.33 18.26072 4.49452 33.752687 2.690819
2003-09-26 13:20:03 51°18.12 2°34.61 18.247443 4.495154 33.774563 2.690819
2003-09-26 13:21:04 51°17.96 2°34.89 18.233998 4.498002 33.809181 2.758238
2003-09-26 13:22:02 51°17.81 2°35.15 18.248439 4.49758 33.810962 2.926785
2003-09-26 13:23:02 51°17.64 2°35.42 18.253667 4.498635 33.809176 2.859366
2003-09-26 13:24:04 51°17.47 2°35.69 18.256737 4.501378 33.83344 2.825657
2003-09-26 13:25:04 51°17.3 2°35.95 18.265117 4.509185 33.892016 2.994204
2003-09-26 13:26:02 51°17.13 2°36.19 18.259517 4.513299 33.917731 3.027913
2003-09-26 13:27:01 51°16.97 2°36.45 18.283367 4.506864 33.874858 3.027913
2003-09-26 13:28:04 51°16.8 2°36.68 18.198091 4.510029 33.921103 3.129042
2003-09-26 13:29:04 51°16.69 2°36.75 18.174752 4.511085 33.969293 3.027913
2003-09-26 13:30:04 51°16.65 2°36.73 18.180774 4.511718 33.979401 3.027913
2003-09-26 13:31:04 51°16.65 2°36.74 18.183847 4.512773 33.985315 3.027913
2003-09-26 13:32:02 51°16.65 2°36.77 18.186381 4.516466 34.015259 2.859366
2003-09-26 13:33:03 51°16.66 2°36.8 18.18663 4.518892 34.031541 2.960494
2003-09-26 13:34:04 51°16.67 2°36.85 18.188125 4.513617 33.987659 2.994204
2003-09-26 13:35:02 51°16.68 2°36.89 18.191738 4.517415 34.019086 3.027913
2003-09-26 13:36:01 51°16.69 2°36.95 18.200209 4.519947 34.037451 3.095332
2003-09-26 13:37:04 51°16.7 2°37.01 18.200001 4.519314 34.021366 3.061623
2003-09-26 13:38:02 51°16.71 2°37.06 18.203281 4.517309 34.011033 3.061623
2003-09-26 13:39:02 51°16.73 2°37.12 18.197053 4.518364 34.019928 2.994204
2003-09-26 13:40:01 51°16.74 2°37.18 18.198921 4.518259 34.020232 3.027913
2003-09-26 13:41:02 51°16.74 2°37.24 18.235617 4.517942 34.015773 3.061623
2003-09-26 13:42:03 51°16.73 2°37.33 18.246655 4.520158 34.029675 3.095332
2003-09-26 13:43:03 51°16.66 2°37.28 18.22603 4.525855 34.061572 3.331298
2003-09-26 13:44:03 51°16.65 2°37.11 18.225117 4.528809 34.083482 3.297589
2003-09-26 13:45:05 51°16.61 2°36.88 18.221298 4.52385 34.042291 3.297589
2003-09-26 13:46:07 51°16.59 2°36.79 18.212456 4.522584 34.040576 3.263879
2003-09-26 13:47:05 51°16.59 2°36.84 18.245991 4.523217 34.050689 3.23017
2003-09-26 13:48:05 51°16.59 2°36.9 18.214615 4.518259 34.0077 3.162751
2003-09-26 13:49:05 51°16.6 2°36.95 18.217106 4.527859 34.086237 3.19646
2003-09-26 13:50:05 51°16.61 2°37.01 18.221215 4.525855 34.066351 3.23017
2003-09-26 13:51:05 51°16.62 2°37.06 18.221381 4.520685 34.018604 3.263879
2003-09-26 13:52:07 51°16.54 2°37.13 18.227773 4.523323 34.041427 3.23017
2003-09-26 13:53:05 51°16.37 2°37.28 18.287431 4.530286 34.089356 3.398717
2003-09-26 13:54:05 51°16.18 2°37.44 18.180525 4.538409 34.149443 3.499845
2003-09-26 13:55:05 51°15.98 2°37.57 18.133951 4.512246 33.991608 3.297589
2003-09-26 13:56:03 51°15.79 2°37.71 18.136777 4.490935 33.842238 3.263879
2003-09-26 13:57:05 51°15.58 2°37.86 18.118364 4.49083 33.845513 3.162751
2003-09-26 13:58:07 51°15.37 2°38.01 18.145379 4.492096 33.863934 3.263879
2003-09-26 13:59:03 51°15.18 2°38.14 18.103979 4.484289 33.804006 3.23017
2003-09-26 14:00:07 51°14.97 2°38.29 18.098865 4.489775 33.858043 3.23017
2003-09-26 14:01:05 51°14.77 2°38.42 18.107846 4.48967 33.852388 3.19646
2003-09-26 14:02:07 51°14.56 2°38.57 18.128631 4.494312 33.888591 3.19646
2003-09-26 14:03:07 51°14.36 2°38.71 18.144548 4.511824 34.014932 3.297589
2003-09-26 14:04:07 51°14.16 2°38.83 18.103065 4.514673 34.029409 3.365007
2003-09-26 14:05:07 51°13.94 2°38.82 17.956885 4.506656 34.05933 3.634683
2003-09-26 14:06:07 51°13.74 2°38.74 18.056563 4.506129 34.089132 3.702101
2003-09-26 14:07:05 51°13.54 2°38.65 18.079818 4.51077 34.057521 3.735811
2003-09-26 14:08:07 51°13.33 2°38.56 18.045495 4.515412 34.100373 3.668392
2003-09-26 14:09:07 51°13.13 2°38.48 17.972175 4.51383 34.122454 3.702101
2003-09-26 14:10:05 51°12.93 2°38.39 17.940966 4.509295 34.137039 3.836939
2003-09-26 14:11:07 51°12.73 2°38.28 17.980714 4.509189 34.145798 3.904358
2003-09-26 14:12:07 51°12.53 2°38.17 17.987378 4.510244 34.120976 3.870648
2003-09-26 14:13:07 51°12.34 2°38.06 17.963718 4.50845 34.109396 3.904358
2003-09-26 14:14:05 51°12.15 2°37.95 17.929837 4.503492 34.090868 4.039195
2003-09-26 14:15:07 51°11.95 2°37.82 17.920958 4.50613 34.140976 4.308871
2003-09-26 14:16:05 51°11.77 2°37.71 17.9077 4.507396 34.152925 4.275161
2003-09-26 14:17:07 51°11.57 2°37.58 17.877005 4.512039 34.212286 4.072905
2003-09-26 14:18:07 51°11.38 2°37.47 17.853766 4.5132 34.244569 3.904358
2003-09-26 14:19:07 51°11.18 2°37.34 17.880133 4.520479 34.317986 3.80323
2003-09-26 14:20:07 51°11 2°37.2 17.875253 4.525016 34.332833 3.668392
2003-09-26 14:21:07 51°10.81 2°37.05 17.858564 4.527653 34.366203 3.567264
2003-09-26 14:22:07 51°10.62 2°36.92 17.846922 4.524067 34.347878 3.735811
2003-09-26 14:23:05 51°10.43 2°36.86 17.863279 4.524383 34.35605 3.702101
2003-09-26 14:24:05 51°10.23 2°36.99 17.905699 4.525438 34.343109 3.432426
2003-09-26 14:25:05 51°10.1 2°37.28 17.879216 4.525648 34.320588 3.162751
2003-09-26 14:26:07 51°10.14 2°37.67 17.853348 4.526493 34.357554 2.690819
2003-09-26 14:27:05 51°10.24 2°38.01 17.830477 4.526282 34.37403 2.994204
2003-09-26 14:28:07 51°10.34 2°38.38 17.814487 4.526388 34.39505 2.960494
2003-09-26 14:29:05 51°10.43 2°38.74 17.783959 4.524278 34.390514 2.994204
2003-09-26 14:30:07 51°10.52 2°39.11 17.740378 4.520059 34.381437 2.859366
2003-09-26 14:31:07 51°10.6 2°39.48 17.682925 4.513729 34.369035 2.758238
2003-09-26 14:32:07 51°10.69 2°39.85 17.66891 4.507927 34.362352 2.65711
2003-09-26 14:33:07 51°10.78 2°40.21 17.572274 4.497378 34.321839 2.555982
2003-09-26 14:34:07 51°10.86 2°40.58 17.570849 4.492104 34.313507 2.589691
2003-09-26 14:35:07 51°10.94 2°40.96 17.554464 4.492421 34.316214 2.690819
2003-09-26 14:36:07 51°11.01 2°41.33 17.51879 4.493054 34.34495 2.690819
2003-09-26 14:37:07 51°11.06 2°41.71 17.479405 4.488729 34.339248 2.6234
2003-09-26 14:38:07 51°11.09 2°41.98 17.444405 4.480712 34.302508 2.690819
2003-09-26 14:39:07 51°11.09 2°42.06 17.435883 4.478497 34.30196 2.589691
2003-09-26 14:40:07 51°11.1 2°42.08 17.427948 4.478075 34.308801 2.589691
2003-09-26 14:41:07 51°11.12 2°42.11 17.430509 4.476387 34.296782 2.589691
2003-09-26 14:42:07 51°11.13 2°42.14 17.433994 4.476809 34.294865 2.589691
2003-09-26 14:43:07 51°11.14 2°42.18 17.437436 4.480185 34.324439 2.555982
2003-09-26 14:44:08 51°11.11 2°42.34 17.429208 4.476914 34.298231 2.522272
2003-09-26 14:45:06 51°11.13 2°42.67 17.392796 4.477864 34.318072 2.522272
2003-09-26 14:46:08 51°11.19 2°43.06 17.374184 4.468475 34.261495 2.488563
2003-09-26 14:47:08 51°11.28 2°43.42 17.43265 4.470269 34.267045 2.320016
2003-09-26 14:48:06 51°11.36 2°43.77 17.413461 4.469319 34.253361 2.454853
2003-09-26 14:49:06 51°11.43 2°44.13 17.487418 4.472167 34.250139 2.252597
2003-09-26 14:50:06 51°11.51 2°44.49 17.516316 4.47934 34.26435 2.185178
2003-09-26 14:51:06 51°11.59 2°44.86 17.544028 4.481977 34.264855 2.117759
2003-09-26 14:52:08 51°11.67 2°45.23 17.931213 4.486407 34.281935 2.08405
2003-09-26 14:53:08 51°11.74 2°45.59 17.781035 4.485141 34.272329 1.915503
2003-09-26 14:54:08 51°11.82 2°45.96 17.763906 4.486196 34.264203 1.881794
2003-09-26 14:55:08 51°11.9 2°46.32 17.753711 4.482082 34.214348 1.746956
2003-09-26 14:56:06 51°11.97 2°46.68 17.835611 4.476912 34.151265 1.679537
2003-09-26 14:57:08 51°12.07 2°47.05 17.838908 4.474274 34.121435 1.645828
2003-09-26 14:58:08 51°12.17 2°47.4 17.704841 4.474274 34.117174 1.679537
2003-09-26 14:59:08 51°12.27 2°47.74 17.765996 4.467945 34.063754 1.780665
2003-09-26 15:00:08 51°12.37 2°48.09 17.723156 4.462986 34.031154 1.746956
2003-09-26 15:01:08 51°12.47 2°48.43 17.865073 4.455918 33.977501 1.746956
2003-09-26 15:02:06 51°12.57 2°48.77 17.897275 4.436192 33.854512 1.713247
2003-09-26 15:03:06 51°12.68 2°49.12 17.634717 4.419631 33.749914 1.746956
2003-09-26 15:04:06 51°12.78 2°49.47 17.689994 4.412352 33.702207 1.713247
2003-09-26 15:05:08 51°12.88 2°49.83 17.816366 4.404125 33.646965 1.746956
2003-09-26 15:06:06 51°12.98 2°50.16 17.666525 4.404125 33.653597 1.746956
2003-09-26 15:07:06 51°13.08 2°50.5 17.580946 4.389779 33.544816 1.814375
2003-09-26 15:08:08 51°13.19 2°50.86 17.753543 4.384083 33.505743 1.814375
2003-09-26 15:09:08 51°13.3 2°51.2 17.660541 4.379758 33.478982 1.814375
2003-09-26 15:10:08 51°13.41 2°51.53 17.43773 4.374379 33.450395 1.848084
2003-09-26 15:11:06 51°13.53 2°51.85 17.602435 4.367206 33.393257 2.117759
2003-09-26 15:12:08 51°13.65 2°52.19 17.559284 4.362143 33.355356 2.050341
2003-09-26 15:13:08 51°13.77 2°52.52 17.589827 4.358029 33.327962 2.117759
2003-09-26 15:14:06 51°13.87 2°52.84 17.695557 4.355287 33.29913 2.185178
2003-09-26 15:15:08 51°13.98 2°53.17 17.66255 4.348747 33.262937 2.218888
2003-09-26 15:16:08 51°14.05 2°53.38 17.603105 4.339044 33.203826 2.185178
2003-09-26 15:17:08 51°14.1 2°53.56 17.527176 4.334825 33.176085 2.151469
2003-09-26 15:18:06 51°14.15 2°53.7 17.529859 4.332293 33.156813 2.185178
2003-09-26 15:19:06 51°14.19 2°53.82 17.522312 4.332082 33.16157 2.151469
2003-09-26 15:20:08 51°14.23 2°53.93 17.692462 4.330078 33.142036 2.151469
2003-09-26 15:21:08 51°14.26 2°54.04 17.484145 4.32818 33.132349 2.117759
2003-09-26 15:22:08 51°14.3 2°54.15 17.54692 4.32723 33.124226 2.151469
2003-09-26 15:23:08 51°14.33 2°54.3 17.511074 4.324805 33.107043 2.117759
2003-09-26 15:24:08 51°14.37 2°54.57 17.59544 4.323433 33.096501 2.286306
2003-09-26 15:25:06 51°14.38 2°54.87 25.505575 2.6953 17.856742 3.870648
2003-09-26 15:26:06 51°14.32 2°55.16 25.903863 0.06383 0.334989 1.140187
2003-09-26 15:27:06 51°14.22 2°55.33 -999 -999 -999 -999